SBCP/CAW METAR and TAF weather

Enter ICAO airport designator
Station Type Date Time Source
SBCP METAR 2022/01/23 12:00 UTC NOAA

SBCP 231200Z 06010KT 9999 SCT020 28/21 Q1014


Station Type Date Time Source
SBCP Decoded METAR 2022/01/23 12:00 UTC NOAA

Campos, Brazil (SBCP) 21-45S 041-20W 11M
Jan 23, 2022 - 07:00 AM EST / 2022.01.23 1200 UTC
Wind: from the ENE (060 degrees) at 12 MPH (10 KT):0
Visibility: greater than 7 mile(s):0
Sky conditions: partly cloudy
Temperature: 82 F (28 C)
Dew Point: 69 F (21 C)
Relative Humidity: 65%
Pressure (altimeter): 29.94 in. Hg (1014 hPa)
ob: SBCP 231200Z 06010KT 9999 SCT020 28/21 Q1014
cycle: 12

Station Type Date Time Source
SBCP TAF 2022/01/23 12:45 UTC NOAA

TAF SBCP 230845Z 2312/2324 02006KT 9999 SCT020 TX31/2315Z TN23/2324Z
BECMG 2312/2315 07010KT
BECMG 2319/2322 09010KT
RMK PGW

Example: see airport list